Time;durP1;ratioP1;P1;durP2;ratioP2;P2;SDS_P1;SDS_P2;PMS_P1;PMS_P2;Temp;Humidity;BMP_temperature;BMP_pressure;BME280_temperature;BME280_humidity;BME280_pressure;Samples;Min_cycle;Max_cycle;Signal;HPM_P1;HPM_P2
2022/07/07 00:00:31;;;;;;;9.83;8.83;;;18.30;82.00;;;21.17;60.27;101686.41;5093726;28;20188;-63
2022/07/07 00:02:59;;;;;;;8.47;7.73;;;18.30;82.20;;;21.17;59.89;101673.00;5094188;28;20211;-64
2022/07/07 00:05:26;;;;;;;9.60;8.70;;;18.30;82.10;;;21.18;59.99;101679.19;5094384;28;20227;-65
2022/07/07 00:07:54;;;;;;;7.97;7.27;;;18.40;82.10;;;21.19;59.80;101668.25;5093872;28;20202;-63
2022/07/07 00:10:21;;;;;;;9.13;8.33;;;18.40;82.00;;;21.24;59.95;101664.91;5094351;28;20191;-64
2022/07/07 00:12:50;;;;;;;9.93;8.97;;;18.40;82.30;;;21.23;60.01;101661.41;5093832;28;20221;-62
2022/07/07 00:15:17;;;;;;;9.87;9.07;;;18.50;82.30;;;21.24;60.05;101660.38;5093568;28;20203;-63
2022/07/07 00:17:45;;;;;;;9.03;8.17;;;18.50;83.00;;;21.26;59.87;101650.25;5094050;28;20196;-64
2022/07/07 00:20:12;;;;;;;9.70;8.87;;;18.50;82.10;;;21.30;60.34;101640.72;5109562;28;20208;-64
2022/07/07 00:22:40;;;;;;;10.37;9.40;;;18.50;82.50;;;21.35;59.89;101646.22;5093756;28;20219;-64
2022/07/07 00:25:08;;;;;;;9.93;9.03;;;18.50;82.40;;;21.29;60.76;101639.09;5093731;28;20192;-63
2022/07/07 00:27:37;;;;;;;10.33;9.23;;;18.50;82.90;;;21.27;60.79;101640.34;5094345;28;20647;-63
2022/07/07 00:30:07;;;;;;;10.50;9.50;;;18.60;82.60;;;21.32;60.18;101632.47;5094951;28;20188;-64
2022/07/07 00:32:35;;;;;;;10.23;9.20;;;18.60;82.50;;;21.33;60.16;101629.56;5093447;28;20213;-63
2022/07/07 00:35:03;;;;;;;9.73;8.63;;;18.60;82.50;;;21.36;59.91;101626.44;5095247;28;20188;-65
2022/07/07 00:37:30;;;;;;;8.00;7.20;;;18.60;82.70;;;21.41;59.84;101620.41;5095111;28;20188;-64
2022/07/07 00:39:57;;;;;;;11.53;10.43;;;18.60;82.50;;;21.40;60.62;101629.47;5094761;28;20216;-64
2022/07/07 00:42:25;;;;;;;9.17;8.27;;;18.70;82.70;;;21.43;60.40;101619.16;5093451;28;20204;-64
2022/07/07 00:44:52;;;;;;;10.30;9.33;;;18.70;82.50;;;21.47;59.67;101616.81;5093789;28;20279;-62
2022/07/07 00:47:21;;;;;;;10.33;9.23;;;18.70;82.40;;;21.47;59.84;101608.78;5096223;28;20196;-64
2022/07/07 00:49:49;;;;;;;10.80;9.60;;;18.70;82.50;;;21.50;60.04;101609.19;5097700;28;20195;-64
2022/07/07 00:52:16;;;;;;;10.83;9.73;;;18.70;82.40;;;21.53;59.73;101605.22;5096108;28;20228;-64
2022/07/07 00:54:51;;;;;;;11.33;9.97;;;18.70;82.40;;;21.54;59.89;101599.63;5097519;28;20211;-64
2022/07/07 00:57:19;;;;;;;11.23;9.93;;;18.70;82.30;;;21.53;59.85;101599.88;5097665;28;20199;-64
2022/07/07 00:59:59;;;;;;;10.83;9.70;;;18.70;82.00;;;21.53;60.08;101592.66;5111683;28;20207;-64
2022/07/07 01:02:30;;;;;;;11.00;10.00;;;18.70;82.10;;;21.52;60.29;101593.69;5096722;28;20751;-64
2022/07/07 01:05:00;;;;;;;11.10;10.00;;;18.70;82.30;;;21.54;59.99;101586.22;5097324;28;20267;-64
2022/07/07 01:07:30;;;;;;;10.87;9.63;;;18.70;82.30;;;21.54;59.49;101578.19;5097408;28;20233;-64
2022/07/07 01:10:00;;;;;;;11.53;10.33;;;18.70;82.20;;;21.49;60.30;101579.91;5097160;28;20207;-63
2022/07/07 01:12:33;;;;;;;12.07;9.87;;;18.70;82.60;;;21.48;59.91;101568.41;5096779;28;20762;-62
2022/07/07 01:15:01;;;;;;;10.77;9.77;;;18.80;82.30;;;21.51;59.91;101572.50;5095957;28;20190;-64
2022/07/07 01:17:30;;;;;;;11.07;9.93;;;18.80;82.40;;;21.54;60.17;101559.44;5097064;28;20193;-64
2022/07/07 01:19:58;;;;;;;10.67;9.60;;;18.80;82.20;;;21.58;60.03;101574.00;5096735;28;20212;-64
2022/07/07 01:22:31;;;;;;;10.57;8.87;;;18.80;82.40;;;21.61;59.85;101555.88;5096692;28;20225;-64
2022/07/07 01:25:00;;;;;;;10.83;9.50;;;18.80;82.20;;;21.62;59.37;101552.13;5097246;28;20225;-63
2022/07/07 01:27:28;;;;;;;9.53;8.47;;;18.80;82.20;;;21.64;59.70;101544.69;5097301;28;20199;-63
2022/07/07 01:29:57;;;;;;;9.03;8.10;;;18.80;82.10;;;21.67;59.55;101549.59;5096794;28;20180;-64
2022/07/07 01:32:26;;;;;;;10.37;9.37;;;18.80;82.10;;;21.68;59.63;101540.53;5096636;28;20216;-63
2022/07/07 01:34:53;;;;;;;9.83;8.83;;;18.80;82.10;;;21.67;59.79;101544.22;5096873;28;20646;-65
2022/07/07 01:37:24;;;;;;;9.70;8.70;;;18.80;82.10;;;21.68;59.72;101530.59;5096556;28;20283;-65
2022/07/07 01:39:53;;;;;;;9.97;8.60;;;18.90;82.20;;;21.72;58.99;101537.16;5079029;28;20212;-64
2022/07/07 01:42:22;;;;;;;10.00;9.00;;;18.80;82.10;;;21.73;59.51;101527.25;5096040;28;20208;-64
2022/07/07 01:44:51;;;;;;;11.47;8.93;;;18.90;82.20;;;21.76;59.64;101532.13;5096486;28;20189;-64
2022/07/07 01:47:22;;;;;;;9.97;8.27;;;18.90;82.10;;;21.74;59.08;101518.97;5096705;28;20189;-63
2022/07/07 01:49:50;;;;;;;10.60;9.43;;;18.90;82.00;;;21.78;59.21;101525.50;5096792;28;20553;-63
2022/07/07 01:52:18;;;;;;;12.57;10.80;;;18.90;82.00;;;21.80;59.75;101517.25;5096136;28;20690;-64
2022/07/07 01:54:46;;;;;;;11.70;10.53;;;18.90;82.50;;;21.78;59.87;101513.97;5096250;28;20199;-64
2022/07/07 01:57:15;;;;;;;11.10;9.93;;;18.90;82.10;;;21.80;59.50;101507.31;5095987;28;20272;-64
2022/07/07 01:59:44;;;;;;;11.50;10.30;;;19.00;82.00;;;21.80;59.72;101503.84;5096300;28;20212;-63
2022/07/07 02:02:13;;;;;;;9.87;8.97;;;19.00;82.00;;;21.80;59.28;101501.16;5095846;28;20208;-64
2022/07/07 02:04:41;;;;;;;10.53;9.57;;;19.00;82.00;;;21.82;59.39;101504.44;5096511;28;20224;-63
2022/07/07 02:07:09;;;;;;;10.43;9.43;;;19.00;82.00;;;21.86;59.45;101489.53;5095991;28;20196;-64
2022/07/07 02:09:37;;;;;;;11.33;10.13;;;19.00;82.70;;;21.87;58.96;101491.19;5096024;28;20188;-64
2022/07/07 02:12:05;;;;;;;11.50;10.03;;;19.00;81.80;;;21.86;59.19;101487.69;5095381;28;20208;-63
2022/07/07 02:14:32;;;;;;;10.53;9.33;;;19.00;81.60;;;21.89;59.25;101489.09;5095991;28;20196;-64
2022/07/07 02:17:01;;;;;;;8.67;7.67;;;19.00;81.60;;;21.90;59.01;101485.34;5094617;28;20193;-64
2022/07/07 02:19:28;;;;;;;11.93;10.47;;;19.00;81.70;;;21.91;58.93;101487.00;5095197;28;20223;-64
2022/07/07 02:21:56;;;;;;;9.33;8.43;;;19.00;81.70;;;21.93;59.13;101476.84;5095462;28;20209;-64
2022/07/07 02:24:23;;;;;;;10.87;8.87;;;19.00;81.70;;;21.96;59.19;101479.06;5095554;28;20188;-64
2022/07/07 02:26:50;;;;;;;14.30;10.30;;;19.10;81.90;;;21.97;59.47;101480.69;5095770;28;20193;-65
2022/07/07 02:29:18;;;;;;;10.20;9.23;;;19.10;82.00;;;21.93;59.16;101475.00;5095761;28;20208;-64
2022/07/07 02:31:45;;;;;;;10.80;9.70;;;19.10;81.70;;;21.94;58.88;101473.13;5095576;28;20216;-64
2022/07/07 02:34:15;;;;;;;9.43;8.43;;;19.10;81.50;;;21.94;58.97;101473.13;5096494;28;20212;-64
2022/07/07 02:36:42;;;;;;;9.63;8.63;;;19.10;82.20;;;21.95;59.24;101469.38;5096174;28;20199;-64
2022/07/07 02:39:09;;;;;;;10.13;9.23;;;19.10;82.30;;;21.95;59.53;101469.38;5096136;28;20666;-64
2022/07/07 02:41:37;;;;;;;9.97;8.97;;;19.10;82.30;;;21.95;58.96;101458.66;5095822;28;20212;-64
2022/07/07 02:44:04;;;;;;;9.40;8.23;;;19.20;81.60;;;21.96;58.78;101457.63;5096388;28;20667;-64
2022/07/07 02:46:32;;;;;;;9.47;8.57;;;19.10;81.60;;;21.97;59.12;101460.06;5096180;28;20594;-64
2022/07/07 02:48:59;;;;;;;8.20;7.40;;;19.10;81.80;;;21.98;59.29;101450.16;5095637;28;20188;-64
2022/07/07 02:51:28;;;;;;;11.70;8.93;;;19.10;81.90;;;22.00;58.87;101446.19;5095251;28;20231;-64
2022/07/07 02:53:55;;;;;;;10.33;9.37;;;19.20;82.20;;;21.99;58.79;101452.59;5095492;28;20192;-63
2022/07/07 02:56:23;;;;;;;10.07;9.07;;;19.10;82.00;;;21.97;59.32;101441.28;5095454;28;20189;-63
2022/07/07 02:58:50;;;;;;;9.73;8.23;;;19.10;81.90;;;21.96;59.16;101439.69;5095548;28;20192;-63
2022/07/07 03:01:17;;;;;;;11.40;9.13;;;19.10;82.00;;;21.96;59.42;101444.22;5094094;28;20222;-63
2022/07/07 03:03:47;;;;;;;9.93;9.03;;;19.10;82.20;;;21.96;59.60;101446.91;5095003;28;20203;-63
2022/07/07 03:06:15;;;;;;;10.63;8.83;;;19.20;82.30;;;21.95;59.25;101434.53;5094916;28;20214;-64
2022/07/07 03:08:44;;;;;;;9.97;9.07;;;19.10;82.20;;;21.92;59.64;101438.50;5094377;28;20193;-63
2022/07/07 03:11:12;;;;;;;10.20;9.20;;;19.10;82.60;;;21.91;59.50;101430.69;5094812;28;20678;-63
2022/07/07 03:13:39;;;;;;;9.60;8.80;;;19.10;82.50;;;21.90;60.07;101432.53;5095063;28;20180;-63
2022/07/07 03:16:06;;;;;;;9.30;8.37;;;19.10;82.80;;;21.89;59.83;101422.06;5094670;28;20189;-63
2022/07/07 03:18:35;;;;;;;8.80;7.90;;;19.10;83.00;;;21.87;59.92;101410.75;5094189;28;20195;-63
2022/07/07 03:21:02;;;;;;;9.33;8.53;;;19.10;83.00;;;21.85;59.81;101413.66;5093357;28;20606;-63
2022/07/07 03:23:30;;;;;;;9.03;8.13;;;19.10;83.10;;;21.80;60.24;101416.19;5095022;28;20203;-63
2022/07/07 03:25:58;;;;;;;8.70;8.00;;;19.00;83.00;;;21.82;59.80;101413.28;5095036;28;20193;-62
2022/07/07 03:28:26;;;;;;;9.40;8.40;;;19.00;83.30;;;21.81;60.08;101406.28;5094646;28;20242;-63
2022/07/07 03:30:53;;;;;;;8.80;8.00;;;19.00;83.30;;;21.80;60.51;101404.66;5094234;28;20647;-63
2022/07/07 03:33:21;;;;;;;11.00;9.90;;;19.00;83.50;;;21.79;60.84;101406.53;5094565;28;20188;-63
2022/07/07 03:35:54;;;;;;;10.40;9.07;;;19.00;83.80;;;21.78;60.33;101412.91;5093980;28;20204;-62
2022/07/07 03:38:22;;;;;;;9.37;8.37;;;19.00;83.70;;;21.77;60.62;101410.47;5094295;28;20192;-63
2022/07/07 03:40:49;;;;;;;9.30;8.50;;;19.00;83.80;;;21.77;61.10;101394.41;5093905;28;20220;-64
2022/07/07 03:43:18;;;;;;;8.80;7.90;;;19.00;84.30;;;21.79;60.87;101401.16;5094815;28;20192;-63
2022/07/07 03:45:45;;;;;;;8.00;7.30;;;19.00;84.20;;;21.80;60.67;101393.94;5096542;28;20207;-63
2022/07/07 03:48:12;;;;;;;7.90;7.30;;;19.00;84.20;;;21.80;60.56;101399.31;5095911;28;20185;-63
2022/07/07 03:50:40;;;;;;;8.37;7.57;;;19.00;84.10;;;21.82;60.54;101400.69;5093153;28;20192;-63
2022/07/07 03:53:07;;;;;;;8.73;7.80;;;19.00;84.20;;;21.83;60.62;101404.19;5093781;28;20193;-63
2022/07/07 03:55:34;;;;;;;8.97;8.07;;;19.00;84.50;;;21.83;60.64;101404.19;5093918;28;20195;-63
2022/07/07 03:58:02;;;;;;;9.47;8.63;;;19.00;84.60;;;21.80;61.07;101402.00;5094259;28;20184;-64
2022/07/07 04:00:31;;;;;;;9.07;8.27;;;19.00;84.60;;;21.76;60.66;101388.22;5093484;28;20204;-64
2022/07/07 04:02:59;;;;;;;10.03;8.27;;;19.00;84.80;;;21.73;61.02;101399.38;5094323;28;20696;-64
2022/07/07 04:05:26;;;;;;;7.93;7.23;;;19.00;85.10;;;21.72;61.22;101392.41;5095036;28;20184;-64
2022/07/07 04:07:53;;;;;;;7.97;7.27;;;19.00;85.30;;;21.71;61.78;101395.31;5094028;28;20192;-64
2022/07/07 04:10:21;;;;;;;8.03;7.23;;;18.90;85.20;;;21.70;61.34;101388.34;5093621;28;20185;-63
2022/07/07 04:12:48;;;;;;;7.00;6.40;;;18.90;85.50;;;21.71;61.65;101385.41;5093780;28;20216;-64
2022/07/07 04:15:15;;;;;;;6.77;6.17;;;18.90;86.20;;;21.73;61.43;101387.88;5093299;28;20188;-65
2022/07/07 04:17:44;;;;;;;7.23;6.63;;;18.90;85.40;;;21.76;61.61;101387.41;5093934;28;20196;-62
2022/07/07 04:20:12;;;;;;;7.17;5.67;;;18.90;85.50;;;21.78;61.61;101393.34;5093790;28;20219;-63
2022/07/07 04:22:39;;;;;;;6.83;6.27;;;18.90;85.40;;;21.80;61.59;101388.59;5093368;28;20214;-65
2022/07/07 04:25:08;;;;;;;6.37;5.87;;;18.90;85.50;;;21.82;61.32;101387.28;5092951;28;20192;-64
2022/07/07 04:27:36;;;;;;;5.87;5.37;;;19.00;85.70;;;21.85;61.67;101380.66;5093505;28;20199;-63
2022/07/07 04:30:05;;;;;;;6.73;6.13;;;19.00;85.60;;;21.89;61.12;101381.84;5092351;28;20651;-64
2022/07/07 04:32:32;;;;;;;5.50;5.00;;;19.00;85.90;;;21.91;61.37;101380.56;5093509;28;20689;-63
2022/07/07 04:35:01;;;;;;;6.50;6.00;;;19.00;85.60;;;21.93;61.48;101372.28;5092098;28;20643;-63
2022/07/07 04:37:29;;;;;;;6.43;5.90;;;19.00;85.70;;;21.95;60.94;101371.00;5093176;28;20566;-63
2022/07/07 04:39:56;;;;;;;5.43;4.97;;;19.00;85.50;;;21.99;61.46;101368.66;5093114;28;20562;-64
2022/07/07 04:42:24;;;;;;;6.10;5.50;;;19.10;85.70;;;22.00;61.18;101365.75;5092189;28;20219;-64
2022/07/07 04:44:51;;;;;;;6.00;5.40;;;19.10;85.50;;;22.03;60.93;101364.47;5093222;28;20193;-63
2022/07/07 04:47:18;;;;;;;6.40;5.00;;;19.10;85.30;;;22.04;60.89;101369.59;5093403;28;20199;-63
2022/07/07 04:49:46;;;;;;;6.20;5.13;;;19.10;85.30;;;22.08;60.57;101368.06;5092846;28;20541;-63
2022/07/07 04:52:14;;;;;;;5.50;5.00;;;19.20;85.50;;;22.11;60.94;101369.47;5092752;28;20227;-64
2022/07/07 04:54:42;;;;;;;6.53;4.63;;;19.20;85.30;;;22.14;61.24;101366.31;5093278;28;20188;-64
2022/07/07 04:57:09;;;;;;;4.53;4.13;;;19.20;85.30;;;22.17;60.57;101371.22;5093459;28;20196;-63
2022/07/07 04:59:37;;;;;;;5.53;4.60;;;19.20;85.40;;;22.20;60.56;101373.44;5092757;28;20639;-64
2022/07/07 05:02:04;;;;;;;4.40;4.00;;;19.20;85.40;;;22.22;60.94;101368.66;5092565;28;20223;-64
2022/07/07 05:04:32;;;;;;;5.60;4.80;;;19.30;85.80;;;22.24;60.73;101369.22;5093016;28;20275;-64
2022/07/07 05:06:59;;;;;;;4.63;4.23;;;19.30;85.70;;;22.25;60.70;101376.22;5093284;28;20323;-64
2022/07/07 05:09:28;;;;;;;4.47;4.07;;;19.30;86.20;;;22.23;60.76;101373.78;5092744;28;20621;-64
2022/07/07 05:11:55;;;;;;;4.27;3.40;;;19.30;86.10;;;22.25;60.87;101370.84;5092533;28;20204;-63
2022/07/07 05:14:23;;;;;;;4.47;4.07;;;19.30;85.50;;;22.30;60.99;101373.63;5093022;28;20752;-63
2022/07/07 05:16:50;;;;;;;4.00;3.50;;;19.30;86.50;;;22.32;60.82;101371.56;5072507;28;20189;-64
2022/07/07 05:19:18;;;;;;;4.93;3.80;;;19.30;86.40;;;22.34;61.13;101368.63;5072842;28;20255;-64
2022/07/07 05:21:46;;;;;;;4.13;3.73;;;19.40;85.70;;;22.39;61.10;101382.97;5072344;28;20221;-63
2022/07/07 05:24:13;;;;;;;4.33;3.93;;;19.40;85.90;;;22.45;60.75;101376.66;5072761;28;20200;-63
2022/07/07 05:26:42;;;;;;;3.40;3.10;;;19.50;85.90;;;22.51;60.53;101375.69;5072477;28;20674;-66
2022/07/07 05:29:09;;;;;;;3.70;3.40;;;19.50;86.30;;;22.54;60.31;101379.78;5054799;28;20205;-63
2022/07/07 05:31:37;;;;;;;7.77;4.30;;;19.50;85.30;;;22.58;60.68;101375.59;5077278;28;20208;-64
2022/07/07 05:34:04;;;;;;;3.70;3.30;;;19.60;85.30;;;22.59;60.56;101385.25;5096447;28;20196;-64
2022/07/07 05:36:33;;;;;;;3.47;2.97;;;19.60;85.40;;;22.59;60.36;101386.06;5096613;28;20196;-63
2022/07/07 05:39:00;;;;;;;3.20;2.97;;;19.60;85.30;;;22.59;60.43;101388.75;5097105;28;20189;-63
2022/07/07 05:41:28;;;;;;;2.90;2.70;;;19.60;85.40;;;22.56;60.49;101386.53;5097688;28;20221;-63
2022/07/07 05:43:56;;;;;;;2.30;2.10;;;19.60;85.10;;;22.53;60.01;101388.91;5097933;28;20192;-65
2022/07/07 05:46:24;;;;;;;2.50;1.80;;;19.60;84.90;;;22.51;60.65;101386.44;5096169;28;20189;-63
2022/07/07 05:48:51;;;;;;;2.23;2.03;;;19.60;84.90;;;22.52;60.53;101380.03;5094132;28;20250;-64
2022/07/07 05:51:19;;;;;;;2.13;1.73;;;19.60;85.20;;;22.51;60.34;101375.69;5095240;28;20589;-63
2022/07/07 05:53:46;;;;;;;3.40;1.93;;;19.60;85.00;;;22.51;60.50;101386.44;5096761;28;20201;-66
2022/07/07 05:56:13;;;;;;;3.67;2.17;;;19.60;85.20;;;22.54;60.39;101391.31;5095994;28;20268;-63
2022/07/07 05:58:41;;;;;;;2.77;1.97;;;19.60;85.40;;;22.56;60.71;101391.13;5096142;28;20590;-63
2022/07/07 06:01:12;;;;;;;1.97;1.73;;;19.60;85.50;;;22.55;60.49;101392.97;5095612;28;20593;-63
2022/07/07 06:03:39;;;;;;;3.17;2.10;;;19.60;85.50;;;22.57;60.74;101400.78;5095736;28;20188;-63
2022/07/07 06:06:07;;;;;;;1.97;1.73;;;19.60;85.50;;;22.60;60.67;101403.81;5095807;28;20254;-63
2022/07/07 06:08:34;;;;;;;4.23;2.20;;;19.60;85.60;;;22.68;60.65;101406.16;5096261;28;20662;-64
2022/07/07 06:11:02;;;;;;;2.93;1.90;;;19.70;85.80;;;22.79;59.96;101405.31;5095408;28;20211;-64
2022/07/07 06:13:29;;;;;;;3.37;1.60;;;19.70;85.60;;;22.88;60.10;101411.09;5095888;28;20192;-64
2022/07/07 06:15:57;;;;;;;3.10;1.60;;;19.80;85.00;;;22.96;59.80;101412.59;5095856;28;20189;-63
2022/07/07 06:18:26;;;;;;;2.73;1.53;;;19.80;84.80;;;23.05;59.58;101414.66;5095901;28;20635;-64
2022/07/07 06:20:54;;;;;;;1.60;1.50;;;19.90;84.70;;;23.13;59.21;101411.56;5095247;28;20577;-63
2022/07/07 06:23:21;;;;;;;2.30;1.70;;;20.00;84.30;;;23.18;58.93;101419.72;5096001;28;20193;-64
2022/07/07 06:25:49;;;;;;;2.77;1.23;;;20.00;83.80;;;23.21;58.66;101418.44;5096624;28;20292;-65
2022/07/07 06:28:16;;;;;;;2.47;1.30;;;20.00;83.00;;;23.23;58.46;101422.53;5098601;28;20184;-64
2022/07/07 06:30:43;;;;;;;2.00;1.50;;;20.10;83.00;;;23.30;58.26;101417.00;5096422;28;20272;-64
2022/07/07 06:33:11;;;;;;;1.83;1.40;;;20.10;82.60;;;23.32;57.73;101421.06;5112784;28;20196;-64
2022/07/07 06:35:40;;;;;;;2.80;1.40;;;20.10;82.30;;;23.34;57.69;101424.31;5097392;28;20240;-65
2022/07/07 06:38:07;;;;;;;3.27;1.67;;;20.20;82.20;;;23.37;57.84;101417.69;5096814;28;20214;-64
2022/07/07 06:40:35;;;;;;;3.93;1.77;;;20.20;82.10;;;23.39;57.57;101423.66;5097383;28;20214;-63
2022/07/07 06:43:02;;;;;;;2.83;1.20;;;20.20;82.90;;;23.40;57.63;101422.59;5095797;28;20370;-64
2022/07/07 06:45:30;;;;;;;3.53;2.10;;;20.30;82.00;;;23.41;57.64;101424.22;5093492;28;20669;-64
2022/07/07 06:47:57;;;;;;;2.37;1.40;;;20.30;82.10;;;23.42;57.54;101420.47;5095381;28;20284;-64
2022/07/07 06:50:25;;;;;;;1.50;1.33;;;20.30;81.80;;;23.44;57.49;101434.47;5094705;28;20192;-65
2022/07/07 06:52:54;;;;;;;2.20;1.23;;;20.40;81.60;;;23.42;57.29;101431.22;5110787;28;20220;-64
2022/07/07 06:55:22;;;;;;;2.57;1.37;;;20.40;81.30;;;23.41;57.38;101432.28;5094074;28;20192;-64
2022/07/07 06:57:49;;;;;;;1.97;1.47;;;20.40;81.20;;;23.42;57.69;101431.22;5094604;28;20692;-64
2022/07/07 07:00:17;;;;;;;1.67;1.20;;;20.40;81.30;;;23.46;57.26;101432.38;5094818;28;20181;-64
2022/07/07 07:02:45;;;;;;;3.37;1.17;;;20.40;81.40;;;23.51;57.37;101427.88;5093915;28;20291;-64
2022/07/07 07:05:13;;;;;;;2.97;1.10;;;20.40;81.40;;;23.55;56.86;101441.66;5093915;28;20196;-64
2022/07/07 07:07:41;;;;;;;2.57;1.50;;;20.40;81.30;;;23.57;57.16;101436.88;5094236;28;20249;-64
2022/07/07 07:10:10;;;;;;;1.93;1.10;;;20.40;81.40;;;23.60;56.89;101431.00;5094684;28;20256;-63
2022/07/07 07:12:38;;;;;;;2.93;2.23;;;20.40;81.10;;;23.62;56.80;101445.03;5093586;28;20220;-64
2022/07/07 07:15:07;;;;;;;3.17;2.53;;;20.50;81.10;;;23.70;56.92;101449.97;5094103;28;20199;-64
2022/07/07 07:17:34;;;;;;;3.03;1.43;;;20.50;81.70;;;23.83;57.06;101444.28;5094268;28;20192;-64
2022/07/07 07:20:03;;;;;;;2.27;1.30;;;20.60;81.70;;;23.94;56.88;101451.44;5093823;28;20211;-63
2022/07/07 07:22:35;;;;;;;3.33;1.83;;;20.70;81.60;;;24.08;56.35;101455.47;5093932;28;20304;-64
2022/07/07 07:25:04;;;;;;;1.30;1.20;;;20.70;81.60;;;24.23;56.22;101466.47;5110057;28;20238;-64
2022/07/07 07:27:34;;;;;;;3.20;1.57;;;20.80;81.20;;;24.34;55.57;101462.06;5094233;28;20199;-64
2022/07/07 07:30:03;;;;;;;1.77;1.40;;;20.90;80.80;;;24.45;55.81;101465.69;5108751;28;20558;-63
2022/07/07 07:32:30;;;;;;;1.90;1.00;;;21.00;80.40;;;24.54;55.22;101472.28;5093274;28;20212;-63
2022/07/07 07:34:58;;;;;;;2.43;1.40;;;21.10;80.10;;;24.60;54.94;101468.59;5109246;28;20188;-63
2022/07/07 07:37:25;;;;;;;2.63;1.20;;;21.20;79.60;;;24.59;54.65;101469.66;5091910;28;20192;-63
2022/07/07 07:39:52;;;;;;;2.57;1.30;;;21.20;78.90;;;24.51;54.59;101473.59;5092169;28;20287;-62
2022/07/07 07:42:20;;;;;;;4.87;2.07;;;21.30;79.00;;;24.41;55.09;101488.81;5092328;28;20230;-65
2022/07/07 07:47:36;;;;;;;2.77;1.60;;;21.20;79.20;;;24.11;55.83;101495.34;5089705;28;20199;-63
2022/07/07 07:50:05;;;;;;;2.70;2.03;;;21.20;79.30;;;24.01;56.13;101494.34;5089798;28;20312;-62
2022/07/07 07:52:33;;;;;;;3.63;2.67;;;21.00;79.40;;;23.97;56.28;101491.31;5093258;28;20219;-64
2022/07/07 07:55:00;;;;;;;2.20;2.00;;;21.00;79.80;;;24.04;56.79;101493.84;5081962;28;20188;-63
2022/07/07 07:57:28;;;;;;;2.87;1.90;;;21.00;80.10;;;24.21;56.03;101497.38;5077269;28;20201;-62
2022/07/07 07:59:58;;;;;;;5.67;2.70;;;21.00;80.30;;;24.36;55.69;101497.63;5087081;28;20540;-62
2022/07/07 08:02:26;;;;;;;3.00;1.80;;;21.00;79.80;;;24.54;55.22;101509.97;5075422;28;20691;-63
2022/07/07 08:04:54;;;;;;;3.47;2.23;;;21.10;79.70;;;24.74;55.01;101505.72;5090676;28;20246;-64
2022/07/07 08:07:21;;;;;;;4.37;2.73;;;21.20;79.60;;;24.93;54.11;101508.94;5091532;28;20196;-63
2022/07/07 08:09:49;;;;;;;4.90;2.60;;;21.40;79.20;;;24.95;54.05;101522.97;5078203;28;20645;-63
2022/07/07 08:12:17;;;;;;;5.53;3.57;;;21.50;79.20;;;24.88;53.71;101527.72;5088855;28;20233;-62
2022/07/07 08:14:49;;;;;;;5.23;3.13;;;21.50;78.30;;;24.76;54.78;101532.38;5089538;28;20596;-63
2022/07/07 08:17:18;;;;;;;6.90;3.13;;;21.60;78.40;;;24.61;54.16;101538.38;5090456;28;20192;-65
2022/07/07 08:19:46;;;;;;;4.80;2.00;;;21.40;77.60;;;24.59;54.01;101536.97;5087876;28;20192;-62
2022/07/07 08:22:13;;;;;;;3.20;2.40;;;21.30;76.60;;;24.63;53.89;101546.19;5089488;28;20227;-62
2022/07/07 08:24:41;;;;;;;2.40;2.20;;;21.30;76.90;;;24.60;53.98;101552.09;5076359;28;20185;-62
2022/07/07 08:27:08;;;;;;;3.57;1.73;;;21.30;77.40;;;24.56;53.80;101548.22;5074737;28;20311;-61
2022/07/07 08:29:38;;;;;;;4.70;2.20;;;21.30;77.30;;;24.60;53.67;101560.16;5087050;28;20189;-63
2022/07/07 08:32:08;;;;;;;2.97;1.60;;;21.30;77.00;;;24.62;53.43;101566.13;5074618;28;20288;-63
2022/07/07 08:34:37;;;;;;;7.50;2.47;;;21.30;76.40;;;24.61;53.36;101565.28;5085387;28;20264;-63
2022/07/07 08:37:09;;;;;;;3.73;2.43;;;21.40;76.70;;;24.65;53.03;101576.41;5091412;28;20189;-62
2022/07/07 08:39:38;;;;;;;4.37;2.53;;;21.40;75.90;;;24.66;52.34;101586.09;5091921;28;20216;-63
2022/07/07 08:42:06;;;;;;;3.97;2.00;;;21.30;75.00;;;24.67;52.13;101587.72;5089836;28;20219;-63
2022/07/07 08:44:35;;;;;;;5.10;2.93;;;21.30;75.10;;;24.69;52.84;101596.38;5100330;28;20566;-64
2022/07/07 08:47:04;;;;;;;7.53;2.40;;;21.30;75.50;;;24.71;52.25;101587.00;5079894;28;20291;-64
2022/07/07 08:49:32;;;;;;;6.20;2.77;;;21.40;75.80;;;24.85;52.80;101587.47;5090085;28;20188;-63
2022/07/07 08:52:02;;;;;;;8.47;3.40;;;21.40;75.80;;;25.03;51.81;101595.28;5082100;28;20247;-62
2022/07/07 08:54:33;;;;;;;4.63;1.97;;;21.50;74.80;;;25.29;50.90;101599.94;5071679;28;20185;-64
2022/07/07 08:57:01;;;;;;;5.57;2.40;;;21.60;73.90;;;25.78;49.75;101597.28;5062535;28;20196;-61
2022/07/07 08:59:28;;;;;;;4.83;2.70;;;21.80;72.90;;;26.21;48.59;101594.50;5080895;28;20189;-62
2022/07/07 09:02:04;;;;;;;3.80;2.20;;;22.00;71.80;;;26.40;47.70;101611.13;5068339;28;20250;-63
2022/07/07 09:04:32;;;;;;;5.43;2.30;;;22.40;71.50;;;26.72;47.25;101614.63;5076730;28;20208;-62
2022/07/07 09:07:07;;;;;;;6.50;2.50;;;22.60;70.00;;;27.37;45.27;101609.63;5083294;28;20184;-61
2022/07/07 09:09:42;;;;;;;4.03;2.67;;;22.90;68.80;;;27.55;43.81;101623.78;5094063;28;20199;-61
2022/07/07 09:12:13;;;;;;;3.00;2.07;;;23.20;66.00;;;27.62;43.70;101614.34;5091004;28;20644;-63
2022/07/07 09:14:44;;;;;;;5.10;2.13;;;23.40;64.90;;;28.01;43.05;101618.22;5072334;28;20189;-64
2022/07/07 09:17:27;;;;;;;3.50;2.03;;;23.60;64.60;;;28.14;41.96;101628.56;5090187;28;20189;-65
2022/07/07 09:20:03;;;;;;;3.67;2.13;;;23.80;62.20;;;27.90;41.12;101632.81;5092470;28;20293;-64
2022/07/07 09:22:48;;;;;;;5.77;3.40;;;24.00;60.10;;;27.41;41.33;101653.19;5089569;28;20212;-63
2022/07/07 09:25:18;;;;;;;6.07;3.37;;;23.90;60.00;;;27.02;41.85;101649.16;5095044;28;20581;-63
2022/07/07 09:27:57;;;;;;;6.53;4.10;;;23.70;59.70;;;26.53;42.56;101656.63;5090744;28;20200;-63
2022/07/07 09:30:32;;;;;;;6.43;3.20;;;23.40;59.90;;;26.27;44.00;101663.66;5095108;28;20826;-62
2022/07/07 09:33:03;;;;;;;5.15;3.00;;;23.10;61.40;;;26.35;43.86;101679.41;5104774;27;20965;-65
2022/07/07 09:38:24;;;;;;;7.03;3.10;;;22.60;63.50;;;25.34;45.92;101683.56;5097302;28;20197;-65
2022/07/07 09:41:03;;;;;;;3.80;3.13;;;22.30;64.20;;;25.05;46.39;101690.19;5091619;28;20706;-66
2022/07/07 09:43:33;;;;;;;6.90;3.27;;;22.20;65.50;;;24.94;47.29;101682.97;5082271;28;20594;-67
2022/07/07 09:46:17;;;;;;;11.97;4.23;;;22.00;66.20;;;24.82;48.20;101684.94;5079629;28;20193;-65
2022/07/07 09:48:48;;;;;;;8.00;3.10;;;21.90;66.80;;;24.72;47.57;101695.56;5092899;28;20208;-64
2022/07/07 09:51:20;;;;;;;7.67;3.17;;;21.80;66.70;;;24.62;47.88;101700.75;5089974;28;20231;-65
2022/07/07 09:54:08;;;;;;;6.65;3.33;;;21.70;67.00;;;24.80;47.30;101697.84;5090960;28;20448;-64
2022/07/07 09:56:38;;;;;;;7.40;2.70;;;21.50;67.70;;;24.60;48.07;101705.56;5093141;27;20184;-65
2022/07/07 09:59:09;;;;;;;8.23;2.93;;;21.50;67.60;;;24.51;48.22;101697.06;5088979;28;20253;-63
2022/07/07 10:01:40;;;;;;;9.27;3.00;;;21.40;67.50;;;24.53;48.65;101708.41;5094297;28;20216;-63
2022/07/07 10:04:10;;;;;;;9.57;2.80;;;21.40;67.80;;;24.67;48.00;101703.53;5092898;28;20191;-63
2022/07/07 10:06:40;;;;;;;5.43;2.83;;;21.40;67.90;;;24.85;47.33;101701.44;5088353;28;20271;-63
2022/07/07 10:09:12;;;;;;;6.07;2.27;;;21.50;67.10;;;24.94;47.04;101718.00;5089823;28;20217;-65
2022/07/07 10:11:43;;;;;;;7.80;2.83;;;21.60;65.80;;;24.99;46.22;101715.41;5075264;28;20201;-65
2022/07/07 10:14:15;;;;;;;4.87;3.00;;;21.70;65.00;;;25.11;45.95;101724.22;5093023;28;20579;-64
2022/07/07 10:16:47;;;;;;;3.90;1.93;;;21.80;65.30;;;25.39;45.99;101718.69;5091808;28;20184;-65
2022/07/07 10:19:18;;;;;;;6.03;2.20;;;21.90;64.80;;;25.58;44.57;101718.47;5087209;28;20287;-64
2022/07/07 10:21:49;;;;;;;7.13;2.40;;;22.00;63.60;;;26.25;44.23;101717.13;5094051;28;20571;-64